Thunder radar more information blitzortung!


Radar de pluja more information rain snow radar


Visita la nostra xarxa de llocs de meteo:

Template documentation
and downloads

And another site



No particular awareness of the weather is required.    There are no Weather-warnings

Pagina Historial Weather Underground text

Diari Resum Novembre 23, 2017 Unitats:  Mètric    Imperial   Tant
« Previous Dia
SegĂźent Dia »
Diari Setmana Mensual Anual Personalitzada
  Maxima: Minima: Media:
Temperatura: -17.8 °C -14.4 °C -10.7 °C
Punt de rosada: -17.8 °C -16.7 °C -13.1 °C
Humitat: Humidity % 62 % 75 %
Wind Speed: 0 km/h 0 km/h 5.5 km/h
RĂ fegues de vent: 0 km/h - -
Vent:- - SSW
Pression baro: 0 hPa 34462.7 hPa -
Precipitacions: 0 mm    
Historical Graphs
 
 
Dades de taula per Novembre 23, 2017
Temps Temperatura Punt de rosada Pression baro Vent Wind Speed RĂ fegues de vent Humitat Rainfall Rate (Hourly)
-17.8 °C -17.8 °C 0 hPa Calm     Humidity % 0 mm
00:04 -13.1 °C -14.7 °C 34462.7 hPa Calm     82 % 0 mm
00:05 -14 °C -15.2 °C 34462.7 hPa Calm   2.6 km/h 86 % 0 mm
00:09 -13 °C -14.5 °C 34462.7 hPa NE 6 km/h 6 km/h 83 % 0 mm
00:14 -13.1 °C -14.6 °C 34462.7 hPa NE 6 km/h 6 km/h 83 % 0 mm
00:45 -14.3 °C -15.4 °C 34462.7 hPa Calm     87 % 0 mm
00:55 -14.2 °C -15.3 °C 34462.7 hPa Calm     87 % 0 mm
01:05 -14.3 °C -15.5 °C 34462.7 hPa SW 5.1 km/h 5.1 km/h 86 % 0 mm
01:15 -14.4 °C -15.7 °C 34462.7 hPa SW 2.6 km/h 5.1 km/h 85 % 0 mm
01:25 -14.4 °C -15.7 °C 34462.7 hPa SW 5.1 km/h 7.7 km/h 85 % 0 mm
01:35 -14.4 °C -15.7 °C 34462.7 hPa WSW 2.6 km/h 5.1 km/h 85 % 0 mm
01:45 -14.4 °C -15.6 °C 34462.7 hPa Calm     86 % 0 mm
02:15 -14.4 °C -15.6 °C 34496.6 hPa NNE 2.6 km/h 5.1 km/h 86 % 0 mm
02:25 -14.2 °C -15.3 °C 34496.6 hPa WSW 2.6 km/h 5.1 km/h 87 % 0 mm
02:35 -14.1 °C -15.1 °C 34496.6 hPa Calm     88 % 0 mm
02:45 -14 °C -15.1 °C 34462.7 hPa West 2.6 km/h 5.1 km/h 88 % 0 mm
02:55 -13.8 °C -14.7 °C 34462.7 hPa Calm     89 % 0 mm
03:05 -13.8 °C -14.8 °C 34462.7 hPa SW 2.6 km/h 2.6 km/h 88 % 0 mm
03:15 -13.8 °C -14.8 °C 34496.6 hPa Calm   2.6 km/h 88 % 0 mm
03:25 -13.7 °C -14.8 °C 34496.6 hPa Calm     88 % 0 mm
03:35 -13.7 °C -14.6 °C 34496.6 hPa Calm   5.1 km/h 89 % 0 mm
03:45 -13.7 °C -14.8 °C 34496.6 hPa SSW 2.6 km/h 5.1 km/h 88 % 0 mm
03:55 -13.7 °C -14.7 °C 34496.6 hPa WSW 2.6 km/h 5.1 km/h 88 % 0 mm
04:05 -13.6 °C -14.6 °C 34496.6 hPa SW 2.6 km/h 5.1 km/h 88 % 0 mm
04:15 -13.4 °C -14.5 °C 34496.6 hPa SW 2.6 km/h 5.1 km/h 88 % 0 mm
04:25 -13.2 °C -14.2 °C 34496.6 hPa Calm     89 % 0 mm
04:35 -12.7 °C -13.6 °C 34496.6 hPa WNW 2.6 km/h 2.6 km/h 90 % 0 mm
04:45 -12.3 °C -13.3 °C 34496.6 hPa NE 2.6 km/h 5.1 km/h 89 % 0 mm
04:55 -11.9 °C -12.9 °C 34496.6 hPa SE 2.6 km/h 5.1 km/h 88 % 0 mm
05:05 -11.8 °C -13 °C 34496.6 hPa SW 2.6 km/h 5.1 km/h 86 % 0 mm
05:15 -11.7 °C -13.1 °C 34533.8 hPa SSW 5.1 km/h 5.1 km/h 84 % 0 mm
05:25 -11.3 °C -12.8 °C 34496.6 hPa South 2.6 km/h 7.7 km/h 83 % 0 mm
05:35 -11.1 °C -12.8 °C 34496.6 hPa NNE 2.6 km/h 7.7 km/h 81 % 0 mm
05:45 -11.1 °C -13.1 °C 34533.8 hPa NNE 7.7 km/h 15.6 km/h 79 % 0 mm
05:55 -11.2 °C -13.1 °C 34496.6 hPa NE 2.6 km/h 10.3 km/h 79 % 0 mm
11:57 -11 °C -13.1 °C 34496.6 hPa NE 6 km/h 6 km/h 78 % 0 mm
11:58 -11 °C -13.1 °C 34496.6 hPa NE 6 km/h 6 km/h 78 % 0 mm
12:03 -10.9 °C -13 °C 34496.6 hPa NW 9 km/h 9 km/h 78 % 0 mm
12:08 -11 °C -13.2 °C 34496.6 hPa North 6 km/h 6 km/h 77 % 0 mm
12:13 -10.9 °C -13.1 °C 34496.6 hPa North 6 km/h 6 km/h 77 % 0 mm
12:18 -10.9 °C -13.2 °C 34496.6 hPa East 6 km/h   76 % 0 mm
12:23 -10.8 °C -13.1 °C 34496.6 hPa NW 5.1 km/h   76 % 0 mm
12:28 -10.8 °C -13.1 °C 34496.6 hPa ENE 6 km/h 6 km/h 76 % 0 mm
12:38 -10.7 °C -13 °C 34496.6 hPa NW 6 km/h 6 km/h 76 % 0 mm
12:43 -10.6 °C -12.9 °C 34496.6 hPa North 3.1 km/h 3.1 km/h 76 % 0 mm
12:48 -10.3 °C -12.6 °C 34496.6 hPa SW 6 km/h 6 km/h 76 % 0 mm
12:53 -9.9 °C -12.3 °C 34496.6 hPa West 6.8 km/h 6.8 km/h 76 % 0 mm
12:58 -9.7 °C -12.2 °C 34496.6 hPa SSE 6 km/h 6 km/h 75 % 0 mm
13:03 -9.6 °C -12.1 °C 34496.6 hPa WSW 6 km/h   75 % 0 mm
13:13 -9.2 °C -11.6 °C 34496.6 hPa SW 11.9 km/h 11.9 km/h 75 % 0 mm
13:18 -9 °C -11.6 °C 34496.6 hPa WSW 6 km/h 6 km/h 74 % 0 mm
13:23 -8.8 °C -11.3 °C 34496.6 hPa SW 9 km/h 9 km/h 75 % 0 mm
13:28 -8.7 °C -11.2 °C 34496.6 hPa SW 11.9 km/h 11.9 km/h 75 % 0 mm
13:33 -8.6 °C -11.2 °C 34462.7 hPa SW 11.9 km/h 11.9 km/h 74 % 0 mm
13:38 -8.5 °C -11.1 °C 34462.7 hPa SW 15 km/h 15 km/h 74 % 0 mm
13:43 -8.4 °C -11.1 °C 34462.7 hPa WSW 11.9 km/h 11.9 km/h 73 % 0 mm
13:48 -8.3 °C -11.2 °C 34462.7 hPa SW 14 km/h 14 km/h 72 % 0 mm
13:53 -8.3 °C -11.1 °C 34462.7 hPa WNW 9 km/h 9 km/h 72 % 0 mm
13:58 -8.2 °C -11 °C 34462.7 hPa SW 9 km/h 9 km/h 72 % 0 mm
14:03 -8.1 °C -11 °C 34462.7 hPa West 8 km/h 8 km/h 71 % 0 mm
14:08 -8 °C -11.1 °C 34462.7 hPa WSW 11.9 km/h 11.9 km/h 70 % 0 mm
14:13 -7.9 °C -11.2 °C 34462.7 hPa SW 11.9 km/h 11.9 km/h 69 % 0 mm
14:18 -7.9 °C -11.1 °C 34462.7 hPa SW 15 km/h 15 km/h 69 % 0 mm
14:23 -7.8 °C -11.2 °C 34462.7 hPa South 11.9 km/h 11.9 km/h 68 % 0 mm
14:28 -7.6 °C -10.9 °C 34462.7 hPa SW 9 km/h 9 km/h 68 % 0 mm
14:38 -7.6 °C -10.9 °C 34462.7 hPa WSW 11.9 km/h 11.9 km/h 68 % 0 mm
14:43 -7.6 °C -10.9 °C 34462.7 hPa SW 15 km/h 15 km/h 68 % 0 mm
14:53 -7.6 °C -11 °C 34462.7 hPa SW 15 km/h 15 km/h 67 % 0 mm
14:58 -7.4 °C -10.9 °C 34462.7 hPa WSW 15 km/h 15 km/h 67 % 0 mm
15:03 -7.3 °C -10.9 °C 34462.7 hPa SSW 15 km/h 15 km/h 66 % 0 mm
15:08 -7.3 °C -10.9 °C 34462.7 hPa SSW 9 km/h 9 km/h 66 % 0 mm
15:23 -7.1 °C -11.1 °C 34462.7 hPa West 11.9 km/h 11.9 km/h 63 % 0 mm
15:28 -7.1 °C -11.1 °C 34462.7 hPa SW 11.9 km/h 11.9 km/h 63 % 0 mm
15:33 -7.1 °C -11.1 °C 34462.7 hPa WSW 8 km/h 8 km/h 63 % 0 mm
15:38 -6.9 °C -10.9 °C 34462.7 hPa WSW 9.3 km/h 9.3 km/h 63 % 0 mm
15:43 -6.9 °C -10.9 °C 34462.7 hPa SW 9 km/h 9 km/h 63 % 0 mm
15:48 -6.9 °C -11.1 °C 34462.7 hPa SSW 11.9 km/h 11.9 km/h 62 % 0 mm
15:53 -6.8 °C -11 °C 34462.7 hPa SSW 10.3 km/h 10.3 km/h 62 % 0 mm
15:58 -6.8 °C -10.9 °C 34462.7 hPa SW 6 km/h 6 km/h 62 % 0 mm
16:03 -6.8 °C -11 °C 34462.7 hPa SW 9.8 km/h 9.8 km/h 62 % 0 mm
16:08 -6.9 °C -11.1 °C 34462.7 hPa SW 11.9 km/h 11.9 km/h 62 % 0 mm
16:13 -6.9 °C -11.1 °C 34462.7 hPa SW 11.1 km/h 11.1 km/h 62 % 0 mm
16:18 -6.9 °C -11.1 °C 34462.7 hPa SSW 10.3 km/h 10.3 km/h 62 % 0 mm
16:23 -6.9 °C -11.1 °C 34462.7 hPa SW 11.9 km/h 11.9 km/h 62 % 0 mm
16:28 -7.1 °C -11.2 °C 34462.7 hPa SW 9 km/h 9 km/h 62 % 0 mm
16:38 -7.2 °C -11.3 °C 34462.7 hPa SW 6 km/h 6 km/h 62 % 0 mm
16:43 -7.3 °C -11.2 °C 34462.7 hPa SW 6.3 km/h 6.3 km/h 64 % 0 mm
16:48 -7.3 °C -11.2 °C 34462.7 hPa WSW 6 km/h 6 km/h 64 % 0 mm
16:58 -7.6 °C -11.4 °C 34462.7 hPa SW 6 km/h 6 km/h 64 % 0 mm
17:03 -7.7 °C -11.4 °C 34462.7 hPa Calm     65 % 0 mm
17:08 -7.8 °C -11.6 °C 34462.7 hPa West 6 km/h 6 km/h 65 % 0 mm
17:13 -8 °C -11.7 °C 34462.7 hPa Calm     65 % 0 mm
17:28 -8.5 °C -11.8 °C 34496.6 hPa WSW 3.1 km/h 3.1 km/h 68 % 0 mm
17:33 -8.6 °C -11.9 °C 34462.7 hPa Calm     68 % 0 mm
17:38 -8.7 °C -11.9 °C 34462.7 hPa Calm     69 % 0 mm
17:43 -8.8 °C -12 °C 34462.7 hPa Calm     69 % 0 mm
17:53 -8.9 °C -12 °C 34496.6 hPa WSW 5.1 km/h 5.1 km/h 70 % 0 mm
18:03 -9.3 °C -12.3 °C 34496.6 hPa West 3.7 km/h 3.7 km/h 70 % 0 mm
18:08 -9.4 °C -12.3 °C 34496.6 hPa WSW 6 km/h 6 km/h 71 % 0 mm
18:13 -9.5 °C -12.3 °C 34496.6 hPa SW 6 km/h   72 % 0 mm
18:18 -9.6 °C -12.3 °C 34496.6 hPa SW 6 km/h 6 km/h 72 % 0 mm
18:23 -9.7 °C -12.4 °C 34496.6 hPa SW 6 km/h 6 km/h 73 % 0 mm
18:28 -9.8 °C -12.5 °C 34496.6 hPa SW 6.8 km/h 6.8 km/h 73 % 0 mm
18:33 -9.9 °C -12.6 °C 34496.6 hPa SW 9 km/h 9 km/h 73 % 0 mm
18:38 -10 °C -12.7 °C 34496.6 hPa SW 7.6 km/h 7.6 km/h 73 % 0 mm
18:43 -10 °C -12.6 °C 34496.6 hPa SW 9 km/h 9 km/h 74 % 0 mm
18:53 -9.8 °C -12.3 °C 34496.6 hPa SW 9 km/h 9 km/h 75 % 0 mm
18:58 -9.8 °C -12.1 °C 34496.6 hPa SW 11.9 km/h 11.9 km/h 76 % 0 mm
19:03 -9.8 °C -12.2 °C 34533.8 hPa WSW 9 km/h 9 km/h 76 % 0 mm
19:13 -9.9 °C -12.1 °C 34533.8 hPa WSW 9 km/h 9 km/h 77 % 0 mm
19:18 -9.9 °C -12.2 °C 34533.8 hPa SW 8 km/h 8 km/h 77 % 0 mm
19:23 -10 °C -12.2 °C 34533.8 hPa SW 11.9 km/h 11.9 km/h 77 % 0 mm
19:28 -10.1 °C -12.2 °C 34533.8 hPa SW 9 km/h 9 km/h 78 % 0 mm
19:33 -10.1 °C -12.2 °C 34533.8 hPa WSW 9 km/h 9 km/h 78 % 0 mm
19:38 -10.2 °C -12.2 °C 34533.8 hPa West 6 km/h 6 km/h 79 % 0 mm
19:43 -10.3 °C -12.3 °C 34533.8 hPa West 6 km/h 6 km/h 79 % 0 mm
19:48 -10.3 °C -12.3 °C 34533.8 hPa WNW 3.1 km/h   79 % 0 mm
19:53 -10.4 °C -12.3 °C 34533.8 hPa West 3.1 km/h   80 % 0 mm
19:58 -10.4 °C -12.3 °C 34533.8 hPa Calm     80 % 0 mm
20:13 -10.6 °C -12.6 °C 34533.8 hPa West 9 km/h 9 km/h 79 % 0 mm
20:28 -10.6 °C -12.4 °C 34533.8 hPa WSW 6 km/h 6 km/h 80 % 0 mm
20:33 -10.6 °C -12.4 °C 34533.8 hPa WSW 6 km/h 6 km/h 80 % 0 mm
20:38 -10.7 °C -12.6 °C 34533.8 hPa WSW 6 km/h 6 km/h 80 % 0 mm
20:48 -10.8 °C -12.6 °C 34533.8 hPa Calm     81 % 0 mm
20:58 -10.8 °C -12.5 °C 34533.8 hPa West 3.7 km/h 3.7 km/h 82 % 0 mm
20:59 -10.8 °C -12.5 °C 34533.8 hPa SW 6 km/h 6 km/h 82 % 0 mm
21:04 -10.8 °C -12.5 °C 34533.8 hPa WSW 6 km/h 6 km/h 82 % 0 mm
21:05 -12.6 °C -15.3 °C 34496.6 hPa WNW 2.6 km/h 5.1 km/h 71 % 0 mm
21:09 -10.9 °C -12.6 °C 34533.8 hPa West 5.6 km/h   82 % 0 mm
21:14 -11 °C -12.7 °C 34533.8 hPa WSW 3.1 km/h 3.7 km/h 81 % 0 mm
21:15 -12.5 °C -15.6 °C 34533.8 hPa WNW 2.6 km/h 2.6 km/h 68 % 0 mm
21:19 -11.1 °C -12.8 °C 34533.8 hPa WSW 3.1 km/h   81 % 0 mm
21:24 -11.2 °C -12.9 °C 34533.8 hPa Calm     81 % 0 mm
21:25 -12.3 °C -15.5 °C 34533.8 hPa WNW 2.6 km/h 5.1 km/h 67 % 0 mm
21:29 -11.2 °C -12.9 °C 34533.8 hPa Calm     81 % 0 mm
21:35 -12 °C -15.2 °C 34533.8 hPa NW 2.6 km/h 2.6 km/h 67 % 0 mm
21:39 -11.4 °C -13.2 °C 34533.8 hPa WNW 3.1 km/h 3.1 km/h 81 % 0 mm
21:44 -11.4 °C -13.3 °C 34533.8 hPa WSW 6 km/h 6 km/h 80 % 0 mm
21:45 -12.1 °C -15.7 °C 34496.6 hPa Calm   5.1 km/h 64 % 0 mm
21:49 -11.6 °C -13.4 °C 34533.8 hPa West 5.1 km/h 5.1 km/h 80 % 0 mm
22:04 -11.6 °C -13.6 °C 34533.8 hPa WSW 3.1 km/h 3.1 km/h 78 % 0 mm
22:05 -12.7 °C -16 °C 34496.6 hPa ENE 2.6 km/h 5.1 km/h 66 % 0 mm
22:19 -11.5 °C -13.4 °C 34533.8 hPa Calm     79 % 0 mm
22:24 -11.6 °C -13.5 °C 34533.8 hPa Calm     79 % 0 mm
22:25 -13.1 °C -16.2 °C 34496.6 hPa Calm   5.1 km/h 68 % 0 mm
22:29 -11.8 °C -13.7 °C 34533.8 hPa SSE 3.7 km/h 3.7 km/h 79 % 0 mm
22:34 -11.9 °C -13.8 °C 34533.8 hPa SSW 4.2 km/h 4.2 km/h 79 % 0 mm
22:35 -13.2 °C -16.3 °C 34496.6 hPa Calm     68 % 0 mm
22:39 -12.1 °C -14 °C 34533.8 hPa Calm     79 % 0 mm
22:45 -13.3 °C -16.2 °C 34496.6 hPa WNW 5.1 km/h 5.1 km/h 69 % 0 mm
22:55 -13.3 °C -16.2 °C 34496.6 hPa Calm   7.7 km/h 69 % 0 mm
23:04 -12.4 °C -14.3 °C 34533.8 hPa WSW 6.3 km/h 6.3 km/h 79 % 0 mm
23:05 -13.2 °C -16.2 °C 34496.6 hPa Calm   2.6 km/h 69 % 0 mm
23:14 -12.5 °C -14.3 °C 34533.8 hPa Calm     80 % 0 mm
23:15 -12.9 °C -16.2 °C 34496.6 hPa West 2.6 km/h 5.1 km/h 67 % 0 mm
23:19 -12.5 °C -14.3 °C 34533.8 hPa SW 6 km/h 6 km/h 80 % 0 mm
23:24 -12.6 °C -14.4 °C 34533.8 hPa SW 3.1 km/h 3.1 km/h 80 % 0 mm
23:25 -13.1 °C -16.3 °C 34496.6 hPa NNW 7.7 km/h 7.7 km/h 67 % 0 mm
23:29 -12.6 °C -14.3 °C 34533.8 hPa Calm     81 % 0 mm
23:34 -12.6 °C -14.3 °C 34533.8 hPa Calm     81 % 0 mm
23:35 -13.2 °C -16.4 °C 34496.6 hPa North 2.6 km/h 7.7 km/h 67 % 0 mm
23:45 -13.3 °C -16.5 °C 34496.6 hPa NE 2.6 km/h 2.6 km/h 67 % 0 mm
23:49 -12.7 °C -14.5 °C 34533.8 hPa Calm     80 % 0 mm
23:55 -13.6 °C -16.7 °C 34496.6 hPa SSW 7.7 km/h 7.7 km/h 68 % 0 mm
23:59 -12.7 °C -14.6 °C 34533.8 hPa NNE 6 km/h 6 km/h 80 % 0 mm
Meteo Sesrovires
Elogis d' Weather Underground - 1.5 mb

Guio original per  Jim McMurry - jmcmurry@mwt.net Adaptat per a la plantilla per  Wim van der Kuil - Leuven-Template.eu

Trobareu la nostra informacio del temps tambe a:

Weather Underground

AWEKAS